Terminal Aerodrome Forecast
Issued by NWS Charleston, WV

Current Version | Previous Version | Graphics & Text | Print | Product List | Glossary On
Versions: 1 2 3 4 5 6 7 8 9 10 11 12 13 14 15 16 17 18 19 20 21 22 23 24 25
123
FTUS41 KRLX 031744
TAFHTS
TAF
KHTS 031744Z 0318/0418 31004KT P6SM -SHRA SCT025 OVC035
      TEMPO 0318/0320 6SM -SHRA BKN020
     FM040500 00000KT 6SM BR BKN040
     FM040800 00000KT 4SM BR BKN035
     FM041300 00000KT P6SM BKN040
     FM041400 VRB03KT P6SM SCT040
     FM041500 23006KT P6SM BKN045=

USA.gov is the U.S. government's official web portal to all federal, state and local government web resources and services.